createdAt,value
2018-10-12T00:00:04.105Z,23.50
2018-10-12T00:02:31.623Z,23.73
2018-10-12T00:04:59.182Z,23.60
2018-10-12T00:07:26.710Z,23.27
2018-10-12T00:09:54.267Z,24.10
2018-10-12T00:12:21.858Z,24.20
2018-10-12T00:14:49.386Z,25.30
2018-10-12T00:17:17.020Z,24.40
2018-10-12T00:19:44.498Z,23.70
2018-10-12T00:22:12.079Z,24.30
2018-10-12T00:24:39.598Z,23.93
2018-10-12T00:27:07.070Z,24.27
2018-10-12T00:29:34.614Z,23.23
2018-10-12T00:32:02.108Z,25.67
2018-10-12T00:34:29.602Z,24.77
2018-10-12T00:36:57.187Z,24.17
2018-10-12T00:39:24.669Z,23.47
2018-10-12T00:41:52.163Z,25.63
2018-10-12T00:44:19.608Z,25.80
2018-10-12T00:46:47.093Z,24.63
2018-10-12T00:49:14.510Z,25.27
2018-10-12T00:51:42.026Z,24.77
2018-10-12T00:54:09.465Z,23.30
2018-10-12T00:56:37.071Z,26.77
2018-10-12T00:59:04.653Z,26.43
2018-10-12T01:01:32.176Z,26.43
2018-10-12T01:03:59.639Z,26.03
2018-10-12T01:06:27.179Z,25.80
2018-10-12T01:08:54.650Z,25.80
2018-10-12T01:11:22.138Z,25.47
2018-10-12T01:13:49.603Z,25.43
2018-10-12T01:16:17.109Z,26.33
2018-10-12T01:18:44.614Z,25.67
2018-10-12T01:21:12.430Z,26.13
2018-10-12T01:23:39.949Z,26.60
2018-10-12T01:26:07.682Z,26.40
2018-10-12T01:28:35.175Z,27.47
2018-10-12T01:31:02.771Z,26.70
2018-10-12T01:33:30.256Z,27.40
2018-10-12T01:35:57.815Z,27.40
2018-10-12T01:38:25.289Z,26.50
2018-10-12T01:40:53.006Z,26.23
2018-10-12T01:43:20.564Z,26.90
2018-10-12T01:45:48.114Z,30.63
2018-10-12T01:48:15.614Z,28.00
2018-10-12T01:50:43.141Z,27.37
2018-10-12T01:53:10.682Z,26.13
2018-10-12T01:55:38.172Z,29.33
2018-10-12T01:58:05.752Z,27.27
2018-10-12T02:00:33.303Z,26.63
2018-10-12T02:03:00.813Z,26.40
2018-10-12T02:05:28.370Z,26.97
2018-10-12T02:07:55.893Z,29.13
2018-10-12T02:10:23.339Z,27.83
2018-10-12T02:12:50.819Z,28.00
2018-10-12T02:15:18.319Z,26.40
2018-10-12T02:17:45.846Z,28.20
2018-10-12T02:20:13.313Z,27.60
2018-10-12T02:22:41.346Z,25.50
2018-10-12T02:25:09.591Z,27.87
2018-10-12T02:27:37.103Z,29.23
2018-10-12T02:30:05.612Z,26.77
2018-10-12T02:32:33.124Z,28.37
2018-10-12T02:35:00.575Z,26.53
2018-10-12T02:37:28.047Z,26.90
2018-10-12T02:39:55.757Z,26.90
2018-10-12T02:42:23.245Z,28.03
2018-10-12T02:44:50.775Z,28.27
2018-10-12T02:47:18.232Z,26.10
2018-10-12T02:49:45.772Z,26.97
2018-10-12T02:52:13.271Z,28.40
2018-10-12T02:54:40.746Z,27.80
2018-10-12T02:57:08.286Z,26.77
2018-10-12T02:59:35.773Z,28.53
2018-10-12T03:02:03.274Z,28.07
2018-10-12T03:04:30.759Z,27.80
2018-10-12T03:07:04.026Z,28.67
2018-10-12T03:09:32.470Z,27.70
2018-10-12T03:11:59.923Z,26.93
2018-10-12T03:14:27.421Z,27.00
2018-10-12T03:16:54.888Z,28.43
2018-10-12T03:19:22.386Z,28.63
2018-10-12T03:21:49.898Z,30.60
2018-10-12T03:24:17.456Z,28.70
2018-10-12T03:26:44.896Z,28.20
2018-10-12T03:29:12.423Z,29.40
2018-10-12T03:31:39.932Z,27.53
2018-10-12T03:34:09.146Z,30.00
2018-10-12T03:36:36.690Z,29.73
2018-10-12T03:39:05.483Z,29.53
2018-10-12T03:41:33.007Z,29.13
2018-10-12T03:44:00.593Z,29.37
2018-10-12T03:46:28.059Z,29.63
2018-10-12T03:48:55.663Z,27.67
2018-10-12T03:51:23.158Z,29.60
2018-10-12T03:53:50.684Z,29.03
2018-10-12T03:56:18.288Z,29.47
2018-10-12T03:58:45.810Z,28.83
2018-10-12T04:01:13.292Z,30.80
2018-10-12T04:03:40.775Z,27.63
2018-10-12T04:06:08.286Z,29.37
2018-10-12T04:08:35.779Z,30.13
2018-10-12T04:11:03.230Z,30.73
2018-10-12T04:13:30.719Z,28.47
2018-10-12T04:15:58.217Z,28.90
2018-10-12T04:18:25.710Z,29.90
2018-10-12T04:20:53.155Z,29.23
2018-10-12T04:23:20.722Z,28.27
2018-10-12T04:25:48.282Z,27.90
2018-10-12T04:28:15.754Z,29.20
2018-10-12T04:30:43.254Z,28.50
2018-10-12T04:33:10.734Z,27.90
2018-10-12T04:35:38.215Z,28.67
2018-10-12T04:38:05.700Z,29.93
2018-10-12T04:41:09.110Z,28.57
2018-10-12T04:43:36.618Z,27.80
2018-10-12T04:46:06.496Z,30.00
2018-10-12T04:48:34.919Z,29.33
2018-10-12T04:51:03.558Z,28.73
2018-10-12T04:53:31.063Z,29.83
2018-10-12T04:55:58.569Z,30.53
2018-10-12T04:58:26.288Z,30.23
2018-10-12T05:00:53.850Z,29.97
2018-10-12T05:03:21.483Z,31.10
2018-10-12T05:05:48.979Z,30.10
2018-10-12T05:08:16.500Z,30.73
2018-10-12T05:10:44.037Z,30.70
2018-10-12T05:13:11.523Z,31.20
2018-10-12T05:15:39.059Z,30.47
2018-10-12T05:18:06.547Z,31.63
2018-10-12T05:20:34.112Z,31.77
2018-10-12T05:23:01.613Z,32.57
2018-10-12T05:25:29.103Z,31.90
2018-10-12T05:27:56.585Z,32.27
2018-10-12T05:30:24.054Z,30.47
2018-10-12T05:32:51.510Z,31.53
2018-10-12T05:35:19.081Z,32.73
2018-10-12T05:37:46.602Z,31.87
2018-10-12T05:40:16.516Z,31.83
2018-10-12T05:42:44.312Z,31.70
2018-10-12T05:45:11.803Z,33.00
2018-10-12T05:47:39.276Z,33.03
2018-10-12T05:50:08.443Z,33.20
2018-10-12T05:52:36.546Z,33.83
2018-10-12T05:55:04.147Z,33.40
2018-10-12T05:57:33.959Z,31.97
2018-10-12T06:00:02.334Z,33.83
2018-10-12T06:02:29.888Z,33.53
2018-10-12T06:04:57.406Z,31.77
2018-10-12T06:07:24.969Z,32.97
2018-10-12T06:09:52.600Z,33.87
2018-10-12T06:12:19.935Z,33.20
2018-10-12T06:14:47.447Z,32.30
2018-10-12T06:17:14.918Z,32.60
2018-10-12T06:19:42.394Z,34.00
2018-10-12T06:22:10.008Z,31.53
2018-10-12T06:24:37.488Z,32.53
2018-10-12T06:27:04.986Z,33.27
2018-10-12T06:29:32.530Z,32.50
2018-10-12T06:32:00.454Z,32.50
2018-10-12T06:34:27.913Z,32.70
2018-10-12T06:36:55.398Z,32.20
2018-10-12T06:39:22.877Z,34.10
2018-10-12T06:41:50.614Z,32.10
2018-10-12T06:44:17.922Z,31.87
2018-10-12T06:46:45.664Z,32.03
2018-10-12T06:49:13.063Z,32.17
2018-10-12T06:51:40.541Z,31.90
2018-10-12T06:54:08.432Z,32.27
2018-10-12T06:56:35.926Z,32.00
2018-10-12T06:59:03.387Z,32.17
2018-10-12T07:01:30.897Z,32.27
2018-10-12T07:03:58.616Z,31.23
2018-10-12T07:06:26.237Z,31.63
2018-10-12T07:08:53.887Z,32.03
2018-10-12T07:11:21.584Z,32.50
2018-10-12T07:13:49.603Z,31.17
2018-10-12T07:16:17.903Z,31.33
2018-10-12T07:18:45.455Z,31.17
2018-10-12T07:21:13.014Z,31.30
2018-10-12T07:23:40.487Z,32.37
2018-10-12T07:26:08.026Z,31.20
2018-10-12T07:28:35.891Z,32.03
2018-10-12T07:31:04.294Z,31.20
2018-10-12T07:33:31.940Z,29.40
2018-10-12T07:35:59.454Z,32.67
2018-10-12T07:38:26.951Z,29.87
2018-10-12T07:40:54.632Z,31.57
2018-10-12T07:43:22.079Z,31.10
2018-10-12T07:45:49.834Z,30.00
2018-10-12T07:48:17.469Z,31.67
2018-10-12T07:50:44.872Z,30.10
2018-10-12T07:53:12.434Z,31.40
2018-10-12T07:55:39.880Z,31.83
2018-10-12T07:58:07.426Z,30.40
2018-10-12T08:00:35.083Z,30.40
2018-10-12T08:03:02.520Z,29.30
2018-10-12T08:05:29.970Z,30.97
2018-10-12T08:07:57.442Z,29.70
2018-10-12T08:10:24.892Z,29.80
2018-10-12T08:12:52.372Z,29.73
2018-10-12T08:15:19.858Z,29.70
2018-10-12T08:17:47.427Z,29.30
2018-10-12T08:20:14.991Z,28.53
2018-10-12T08:22:42.483Z,29.73
2018-10-12T08:25:10.000Z,28.17
2018-10-12T08:27:37.493Z,27.30
2018-10-12T08:30:05.288Z,29.00
2018-10-12T08:32:32.815Z,26.20
2018-10-12T08:35:00.293Z,26.20
2018-10-12T08:37:27.835Z,26.60
2018-10-12T08:39:55.320Z,26.43
2018-10-12T08:42:22.846Z,24.50
2018-10-12T08:44:50.299Z,25.40
2018-10-12T08:47:18.015Z,24.73
2018-10-12T08:49:45.462Z,25.60
2018-10-12T08:52:13.012Z,25.30
2018-10-12T08:54:40.464Z,24.03
2018-10-12T08:57:07.962Z,23.20
2018-10-12T08:59:35.402Z,23.00
2018-10-12T09:02:02.906Z,22.80
2018-10-12T09:04:30.371Z,23.30
2018-10-12T09:06:57.894Z,22.60
2018-10-12T09:09:25.391Z,22.83
2018-10-12T09:11:52.870Z,23.57
2018-10-12T09:14:20.342Z,23.27
2018-10-12T09:16:47.818Z,23.17
2018-10-12T09:19:15.297Z,22.77
2018-10-12T09:21:42.777Z,21.97
2018-10-12T09:24:10.265Z,22.20
2018-10-12T09:26:37.817Z,21.80
2018-10-12T09:29:05.580Z,21.33
2018-10-12T09:31:33.047Z,21.80
2018-10-12T09:34:00.544Z,21.80
2018-10-12T09:36:28.051Z,22.10
2018-10-12T09:38:55.684Z,22.77
2018-10-12T09:41:23.149Z,20.83
2018-10-12T09:43:50.645Z,22.10
2018-10-12T09:46:18.393Z,21.00
2018-10-12T09:48:45.897Z,21.20
2018-10-12T09:51:13.386Z,19.67
2018-10-12T09:53:40.885Z,20.43
2018-10-12T09:56:08.527Z,20.03
2018-10-12T09:58:35.998Z,21.53
2018-10-12T10:01:11.608Z,19.30
2018-10-12T10:03:44.947Z,19.07
2018-10-12T10:06:12.437Z,19.43
2018-10-12T10:08:40.020Z,18.83
2018-10-12T10:11:07.467Z,17.77
2018-10-12T10:13:35.076Z,19.60
2018-10-12T10:16:02.640Z,18.70
2018-10-12T10:18:30.182Z,18.63
2018-10-12T10:20:57.740Z,18.40
2018-10-12T10:23:25.271Z,18.33
2018-10-12T10:25:52.994Z,20.20
2018-10-12T10:28:20.484Z,19.60
2018-10-12T10:30:48.079Z,18.50
2018-10-12T10:33:15.641Z,19.23
2018-10-12T10:35:43.104Z,18.83
2018-10-12T10:38:10.715Z,16.83
2018-10-12T10:40:38.178Z,16.90
2018-10-12T10:43:05.960Z,18.00
2018-10-12T10:45:33.448Z,18.77
2018-10-12T10:48:00.955Z,17.90
2018-10-12T10:50:28.486Z,16.53
2018-10-12T10:52:56.128Z,17.07
2018-10-12T10:55:23.734Z,16.47
2018-10-12T10:57:51.171Z,16.53
2018-10-12T11:00:18.847Z,16.40
2018-10-12T11:02:46.349Z,17.33
2018-10-12T11:05:13.848Z,16.27
2018-10-12T11:07:41.462Z,16.63
2018-10-12T11:10:08.948Z,15.90
2018-10-12T11:12:36.625Z,16.23
2018-10-12T11:15:04.555Z,17.23
2018-10-12T11:17:32.113Z,17.43
2018-10-12T11:19:59.674Z,16.77
2018-10-12T11:22:27.155Z,15.87
2018-10-12T11:24:54.830Z,16.10
2018-10-12T11:27:22.350Z,17.40
2018-10-12T11:29:49.833Z,16.70
2018-10-12T11:32:17.288Z,17.03
2018-10-12T11:34:44.813Z,13.90
2018-10-12T11:37:12.280Z,14.30
2018-10-12T11:39:39.764Z,15.63
2018-10-12T11:42:07.296Z,13.90
2018-10-12T11:44:34.854Z,14.17
2018-10-12T11:47:02.311Z,13.30
2018-10-12T11:49:29.809Z,12.40
2018-10-12T11:51:57.281Z,12.03
2018-10-12T11:54:24.780Z,11.47
2018-10-12T11:56:53.162Z,13.27
2018-10-12T11:59:21.402Z,11.50
2018-10-12T12:01:48.931Z,11.77
2018-10-12T12:04:16.416Z,11.77
2018-10-12T12:06:43.887Z,11.80
2018-10-12T12:09:11.371Z,11.40
2018-10-12T12:11:39.043Z,9.93
2018-10-12T12:14:06.535Z,10.33
2018-10-12T12:16:34.051Z,9.87
2018-10-12T12:19:01.913Z,8.90
2018-10-12T12:21:29.732Z,8.70
2018-10-12T12:23:57.199Z,9.50
2018-10-12T12:26:24.791Z,9.17
2018-10-12T12:28:52.285Z,9.13
2018-10-12T12:31:19.812Z,9.40
2018-10-12T12:33:47.507Z,9.47
2018-10-12T12:36:15.120Z,10.03
2018-10-12T12:38:43.308Z,9.40
2018-10-12T12:41:11.310Z,9.60
2018-10-12T12:43:38.838Z,9.00
2018-10-12T12:46:06.379Z,9.23
2018-10-12T12:48:34.145Z,8.97
2018-10-12T12:51:01.347Z,8.67
2018-10-12T12:53:28.788Z,8.57
2018-10-12T12:55:56.256Z,9.43
2018-10-12T12:58:23.911Z,9.03
2018-10-12T13:00:51.486Z,9.20
2018-10-12T13:03:18.936Z,9.33
2018-10-12T13:05:46.426Z,9.50
2018-10-12T13:08:13.895Z,9.30
2018-10-12T13:10:41.502Z,9.50
2018-10-12T13:13:08.975Z,9.33
2018-10-12T13:15:36.455Z,9.03
2018-10-12T13:18:03.958Z,9.37
2018-10-12T13:20:31.447Z,9.83
2018-10-12T13:22:58.890Z,8.60
2018-10-12T13:25:26.488Z,9.23
2018-10-12T13:27:53.977Z,8.70
2018-10-12T13:30:21.540Z,8.50
2018-10-12T13:32:49.036Z,8.50
2018-10-12T13:35:16.524Z,7.90
2018-10-12T13:37:44.026Z,7.80
2018-10-12T13:40:11.537Z,8.20
2018-10-12T13:42:39.255Z,7.23
2018-10-12T13:45:07.243Z,7.33
2018-10-12T13:47:34.732Z,8.27
2018-10-12T13:50:02.289Z,7.60
2018-10-12T13:52:29.791Z,7.07
2018-10-12T13:54:57.252Z,6.50
2018-10-12T13:57:24.728Z,6.63
2018-10-12T13:59:52.179Z,6.93
2018-10-12T14:02:19.737Z,7.10
2018-10-12T14:04:47.204Z,6.80
2018-10-12T14:07:14.679Z,6.80
2018-10-12T14:09:42.215Z,6.93
2018-10-12T14:12:09.777Z,6.50
2018-10-12T14:14:37.210Z,7.23
2018-10-12T14:17:04.735Z,6.30
2018-10-12T14:19:32.369Z,6.93
2018-10-12T14:21:59.715Z,6.80
2018-10-12T14:24:27.151Z,7.80
2018-10-12T14:26:54.717Z,6.40
2018-10-12T14:29:22.174Z,6.60
2018-10-12T14:31:49.674Z,7.40
2018-10-12T14:34:17.156Z,6.60
2018-10-12T14:36:44.662Z,6.40
2018-10-12T14:39:12.120Z,6.57
2018-10-12T14:41:39.733Z,7.07
2018-10-12T14:44:07.357Z,6.63
2018-10-12T14:46:34.912Z,7.10
2018-10-12T14:49:02.554Z,6.10
2018-10-12T14:51:30.361Z,6.37
2018-10-12T14:53:58.136Z,6.70
2018-10-12T14:56:25.648Z,6.73
2018-10-12T14:58:53.398Z,5.97
2018-10-12T15:01:20.890Z,5.97
2018-10-12T15:03:48.365Z,6.37
2018-10-12T15:06:15.917Z,6.73
2018-10-12T15:08:43.381Z,7.33
2018-10-12T15:11:10.863Z,7.13
2018-10-12T15:13:38.340Z,6.90
2018-10-12T15:16:05.879Z,7.13
2018-10-12T15:18:33.427Z,6.50
2018-10-12T15:21:00.948Z,6.50
2018-10-12T15:23:28.408Z,7.27
2018-10-12T15:25:55.864Z,6.43
2018-10-12T15:28:23.357Z,6.67
2018-10-12T15:30:50.816Z,6.47
2018-10-12T15:33:18.527Z,6.97
2018-10-12T15:35:45.992Z,6.57
2018-10-12T15:38:13.496Z,7.03
2018-10-12T15:40:41.030Z,7.50
2018-10-12T15:43:08.800Z,7.50
2018-10-12T15:45:36.310Z,6.80
2018-10-12T15:48:03.844Z,7.30
2018-10-12T15:50:31.319Z,7.20
2018-10-12T15:52:58.870Z,7.00
2018-10-12T15:55:26.330Z,7.10
2018-10-12T15:57:53.831Z,7.73
2018-10-12T16:00:21.435Z,7.20
2018-10-12T16:02:48.964Z,8.07
2018-10-12T16:05:16.429Z,7.70
2018-10-12T16:07:43.929Z,8.03
2018-10-12T16:10:11.456Z,7.57
2018-10-12T16:12:38.967Z,8.37
2018-10-12T16:15:06.468Z,8.13
2018-10-12T16:17:33.967Z,8.57
2018-10-12T16:20:01.445Z,8.30
2018-10-12T16:22:28.965Z,7.70
2018-10-12T16:25:07.969Z,9.00
2018-10-12T16:27:35.484Z,7.87
2018-10-12T16:30:04.308Z,8.70
2018-10-12T16:32:31.827Z,8.03
2018-10-12T16:34:59.334Z,8.80
2018-10-12T16:37:26.842Z,8.30
2018-10-12T16:39:54.292Z,8.27
2018-10-12T16:42:21.806Z,8.23
2018-10-12T16:44:49.253Z,9.00
2018-10-12T16:47:16.778Z,9.80
2018-10-12T16:49:44.272Z,8.10
2018-10-12T16:52:11.754Z,8.23
2018-10-12T16:54:39.284Z,8.50
2018-10-12T16:57:06.771Z,7.90
2018-10-12T16:59:34.291Z,9.10
2018-10-12T17:02:01.983Z,8.00
2018-10-12T17:04:29.552Z,8.37
2018-10-12T17:06:57.091Z,9.17
2018-10-12T17:09:24.654Z,9.67
2018-10-12T17:11:52.119Z,9.23
2018-10-12T17:14:19.711Z,9.07
2018-10-12T17:16:47.171Z,8.63
2018-10-12T17:19:14.641Z,8.43
2018-10-12T17:21:42.192Z,9.00
2018-10-12T17:24:09.659Z,8.90
2018-10-12T17:26:37.158Z,9.43
2018-10-12T17:29:04.689Z,8.87
2018-10-12T17:31:32.119Z,9.10
2018-10-12T17:33:59.614Z,10.40
2018-10-12T17:36:27.078Z,9.50
2018-10-12T17:38:54.562Z,9.20
2018-10-12T17:41:22.019Z,10.10
2018-10-12T17:43:49.515Z,9.10
2018-10-12T17:46:17.163Z,8.40
2018-10-12T17:48:44.690Z,9.37
2018-10-12T17:51:12.881Z,9.83
2018-10-12T17:53:40.363Z,8.50
2018-10-12T17:56:08.173Z,11.73
2018-10-12T17:58:35.734Z,10.13
2018-10-12T18:01:03.596Z,8.80
2018-10-12T18:03:31.257Z,9.53
2018-10-12T18:05:58.832Z,9.83
2018-10-12T18:08:26.356Z,11.67
2018-10-12T18:10:53.837Z,8.33
2018-10-12T18:13:21.332Z,9.33
2018-10-12T18:15:48.822Z,9.57
2018-10-12T18:18:16.276Z,9.33
2018-10-12T18:20:43.763Z,8.73
2018-10-12T18:23:11.258Z,8.70
2018-10-12T18:25:38.789Z,9.27
2018-10-12T18:28:06.744Z,10.07
2018-10-12T18:30:34.723Z,8.90
2018-10-12T18:33:02.273Z,9.07
2018-10-12T18:35:30.944Z,9.20
2018-10-12T18:37:58.479Z,9.70
2018-10-12T18:40:26.008Z,11.00
2018-10-12T18:42:53.705Z,9.50
2018-10-12T18:45:21.225Z,9.90
2018-10-12T18:47:48.794Z,8.93
2018-10-12T18:50:16.318Z,9.93
2018-10-12T18:52:43.904Z,9.70
2018-10-12T18:55:11.744Z,9.07
2018-10-12T18:57:39.508Z,9.33
2018-10-12T19:00:08.477Z,8.60
2018-10-12T19:02:36.367Z,10.83
2018-10-12T19:05:04.053Z,10.27
2018-10-12T19:07:31.811Z,10.53
2018-10-12T19:10:00.684Z,10.47
2018-10-12T19:12:28.756Z,10.80
2018-10-12T19:14:56.622Z,11.23
2018-10-12T19:17:25.781Z,9.80
2018-10-12T19:19:53.556Z,10.10
2018-10-12T19:22:21.760Z,10.77
2018-10-12T19:24:49.660Z,10.80
2018-10-12T19:27:18.377Z,10.10
2018-10-12T19:29:45.931Z,10.80
2018-10-12T19:32:14.628Z,10.90
2018-10-12T19:34:42.127Z,11.63
2018-10-12T19:37:09.644Z,11.83
2018-10-12T19:39:38.691Z,11.27
2018-10-12T19:42:06.189Z,11.43
2018-10-12T19:44:33.704Z,11.40
2018-10-12T19:47:01.183Z,11.60
2018-10-12T19:49:28.737Z,11.10
2018-10-12T19:51:56.238Z,11.10
2018-10-12T19:54:23.803Z,12.77
2018-10-12T19:56:51.306Z,12.47
2018-10-12T19:59:18.890Z,11.83
2018-10-12T20:01:46.458Z,13.33
2018-10-12T20:04:13.936Z,12.90
2018-10-12T20:06:41.382Z,12.67
2018-10-12T20:09:10.517Z,12.83
2018-10-12T20:11:38.095Z,12.23
2018-10-12T20:14:05.840Z,14.03
2018-10-12T20:16:33.351Z,12.83
2018-10-12T20:19:01.069Z,13.50
2018-10-12T20:21:28.487Z,13.00
2018-10-12T20:24:01.102Z,12.80
2018-10-12T20:26:28.652Z,14.00
2018-10-12T20:28:56.139Z,15.37
2018-10-12T20:31:23.846Z,14.60
2018-10-12T20:33:51.294Z,13.63
2018-10-12T20:36:18.919Z,15.47
2018-10-12T20:38:46.536Z,14.93
2018-10-12T20:41:14.101Z,16.70
2018-10-12T20:43:41.662Z,16.77
2018-10-12T20:46:09.659Z,16.13
2018-10-12T20:48:37.259Z,15.57
2018-10-12T20:51:04.764Z,17.23
2018-10-12T20:53:32.412Z,17.40
2018-10-12T20:55:59.924Z,16.80
2018-10-12T20:58:27.491Z,18.50
2018-10-12T21:00:54.985Z,17.60
2018-10-12T21:03:22.466Z,18.77
2018-10-12T21:05:49.988Z,18.00
2018-10-12T21:08:17.470Z,17.70
2018-10-12T21:10:45.036Z,18.80
2018-10-12T21:13:12.461Z,17.50
2018-10-12T21:15:40.227Z,19.60
2018-10-12T21:18:07.677Z,18.73
2018-10-12T21:20:35.355Z,18.40
2018-10-12T21:23:02.808Z,20.27
2018-10-12T21:25:30.300Z,19.57
2018-10-12T21:27:57.771Z,19.80
2018-10-12T21:30:25.247Z,18.83
2018-10-12T21:32:52.747Z,18.40
2018-10-12T21:35:20.508Z,19.30
2018-10-12T21:37:48.024Z,19.50
2018-10-12T21:40:15.563Z,17.97
2018-10-12T21:42:43.007Z,20.07
2018-10-12T21:45:10.531Z,20.07
2018-10-12T21:47:38.054Z,19.93
2018-10-12T21:50:05.650Z,18.87
2018-10-12T21:52:33.201Z,19.50
2018-10-12T21:55:00.649Z,20.10
2018-10-12T21:57:28.174Z,19.43
2018-10-12T21:59:55.662Z,20.53
2018-10-12T22:02:23.276Z,21.00
2018-10-12T22:04:50.897Z,20.17
2018-10-12T22:07:18.380Z,21.20
2018-10-12T22:09:45.889Z,21.17
2018-10-12T22:12:13.375Z,20.10
2018-10-12T22:14:40.818Z,20.43
2018-10-12T22:17:08.320Z,20.13
2018-10-12T22:19:35.792Z,21.97
2018-10-12T22:22:03.330Z,20.33
2018-10-12T22:24:30.839Z,21.37
2018-10-12T22:26:58.473Z,20.80
2018-10-12T22:29:25.981Z,21.43
2018-10-12T22:31:53.481Z,22.37
2018-10-12T22:34:20.999Z,21.37
2018-10-12T22:36:48.438Z,21.70
2018-10-12T22:39:15.953Z,22.37
2018-10-12T22:41:43.395Z,21.33
2018-10-12T22:44:10.898Z,20.60
2018-10-12T22:46:44.762Z,20.73
2018-10-12T22:49:12.371Z,22.03
2018-10-12T22:51:39.901Z,21.60
2018-10-12T22:54:07.447Z,20.50
2018-10-12T22:56:34.915Z,21.17
2018-10-12T22:59:02.490Z,20.53
2018-10-12T23:01:30.015Z,20.80
2018-10-12T23:03:57.442Z,21.20
2018-10-12T23:06:24.943Z,20.87
2018-10-12T23:08:52.362Z,21.27
2018-10-12T23:11:19.850Z,20.47
2018-10-12T23:13:47.315Z,20.60
2018-10-12T23:16:14.932Z,21.60
2018-10-12T23:18:42.445Z,20.17
2018-10-12T23:21:09.969Z,21.40
2018-10-12T23:23:37.435Z,21.37
2018-10-12T23:26:04.987Z,20.03
2018-10-12T23:28:32.468Z,21.47
2018-10-12T23:31:00.003Z,21.43
2018-10-12T23:33:38.907Z,21.03
2018-10-12T23:36:06.382Z,21.53
2018-10-12T23:38:34.367Z,22.53
2018-10-12T23:41:01.889Z,23.30
2018-10-12T23:43:29.450Z,22.37
2018-10-12T23:45:56.958Z,22.37
2018-10-12T23:48:24.450Z,23.43
2018-10-12T23:50:51.903Z,23.47
2018-10-12T23:53:19.404Z,23.00
2018-10-12T23:55:46.918Z,22.43
2018-10-12T23:58:14.475Z,23.00
